Hit Tracker is now ESPN Home Run Tracker! Hit Tracker founder Greg Rybarczyk is now collaborating with the ESPN Stats & Information Group to continue tracking all MLB home runs, and helping baseball fans know "How Far It Really Went!™" Please credit any information on this site to ESPN Stats & Information Group. For more information and analysis on home runs, please contact founder Greg Rybarczyk. E-Mail ESPN Home Run Tracker
Main Page | Ballparks | Park Overlays | Glossary | Highlight Homers | Feedback | Bio | 3 Types of HR's | AAA Home Run Derby Last Updated: May 23, 2017, 11:42 pm PST
If you want to know "How Far It Really Went!", then you've come to the right place! Welcome to the ESPN Home Run Tracker, where you can find accurate, transparently verifiable distances for every home run hit in MLB games. Please also check out the ESPN MLB Scoreboard throughout the 2017 season! Contact us at grybar@hittrackeronline.com.
Season:
Ballpark detail for Target Field
Ballpark # of Home Runs HR per game Avg.
True
Distance
Avg.
Speed
Off
Bat
Avg.
Std.
Dist.
Target Field 63 2.62 397 103.8 395.6

Scatter Plot of Home Runs Target Field
 Overlay Ballpark:
Without range rings   With range rings

2017 Season Home Runs for Target Field
Click headers to sort
Date Video Path Hitter Hitter
Team
Pitcher Pitcher
Team
INN Ballpark Type/
Luck
True
Dist.
Speed
Off
Bat
Elev.
Angle
Horiz.
Angle
Apex Impact Due To: Std.
Dist.
#
Parks
Wind Temp. ^ Alt.
05/21/17 Video View Gimenez, Chris MIN Young, Chris KC 4 Target Field JE 347 100.1 39.8 114.5 142 8 -9 5 343 6
05/21/17 Video View Kepler, Max MIN Kennedy, Ian KC 1 Target Field JE 353 96.4 38.0 67.8 123 11 -7 4 345 11
05/18/17 Video View Arenado, Nolan COL Santana, Ervin MIN 1 Target Field PL 375 103.2 35.4 115.8 126 -4 -6 4 381 30
05/21/17 Video View Moss, Brandon KC Wilk, Adam MIN 8 Target Field ND 434 105.3 30.2 77.8 107 13 -5 3 422 29
04/03/17 Video View Moustakas, Mike KC Santana, Ervin MIN 4 Target Field JE 365 96.6 34.5 73.6 113 1 -4 3 365 13
04/18/17 Video View Ramirez, Jose CLE Hughes, Phil MIN 3 Target Field JE 396 100.4 32.1 81.1 118 -1 -4 3 398 22
04/18/17 Video View Encarnacion, Edwin CLE Tonkin, Michael MIN 9 Target Field PL 370 97.0 33.6 119.6 92 15 -4 2 356 18
05/19/17 Video View Grossman, Robbie MIN Karns, Nate KC 4 Target Field PL 394 101.9 32.0 77.9 119 -7 -4 3 402 29
04/06/17 Video View Moustakas, Mike KC Gibson, Kyle MIN 6 Target Field PL 360 96.2 33.1 58.2 87 10 -3 2 351 26
05/07/17 Video View Leon, Sandy BOS Santana, Ervin MIN 6 Target Field JE 369 95.8 32.8 71.6 98 4 -3 -1 365 12
05/21/17 Video View Grossman, Robbie MIN Kennedy, Ian KC 1 Target Field JE 410 101.3 28.0 81.4 89 6 -3 1 405 24
04/06/17 Video View Perez, Salvador KC Gibson, Kyle MIN 5 Target Field PL 386 104.5 27.1 112.8 85 -7 -2 1 395 30
04/03/17 Video View Sano, Miguel MIN Duffy, Danny KC 4 Target Field ND 414 112.6 23.5 113.6 71 -1 -2 1 416 30
04/18/17 Video View Sano, Miguel MIN Otero, Dan CLE 8 Target Field JE 399 103.6 26.0 72.3 73 5 -2 1 395 29
04/21/17 Video View Rosario, Eddie MIN Jimenez, Joe DET 6 Target Field JE 383 98.3 31.2 106.8 97 4 -2 2 379 20
05/02/17 Video View Castro, Jason MIN Gray, Sonny OAK 4 Target Field PL 427 104.6 26.4 88.1 96 -1 -2 1 428 28
05/02/17 Video View Sano, Miguel MIN Gray, Sonny OAK 3 Target Field PL 452 107.8 29.4 90.5 119 4 -2 3 447 30
05/02/17 Video View Buxton, Byron MIN Valdez, Cesar OAK 7 Target Field ND 429 110.1 25.0 106.4 82 0 -2 2 429 30
05/02/17 Video View Dozier, Brian MIN Valdez, Cesar OAK 7 Target Field PL 424 103.9 26.4 90.1 94 0 -2 1 425 28
05/03/17 Video View Alonso, Yonder OAK Santiago, Hector MIN 4 Target Field ND 391 105.8 28.6 57.2 83 -2 -2 2 393 30
05/04/17 Video View Rosario, Eddie MIN Cotton, Jharel OAK 2 Target Field PL 392 100.7 37.1 73.0 133 20 -2 4 370 13
05/19/17 Video View Vargas, Kennys MIN Herrera, Kelvin KC 9 Target Field PL 439 107.5 25.8 85.4 98 -1 -2 2 441 29
05/21/17 Video View Bonifacio, Jorge KC Hughes, Phil MIN 4 Target Field JE 414 102.6 26.6 94.8 90 1 -2 2 414 25
05/21/17 Video View Hosmer, Eric KC Rogers, Taylor MIN 8 Target Field JE 410 102.9 25.3 94.4 89 -2 -2 1 413 22
04/05/17 Video View Escobar, Eduardo MIN Strahm, Matt KC 7 Target Field JE 397 106.5 21.8 101.7 62 0 -1 0 397 19
04/14/17 Video View Davidson, Matt CHW Pressly, Ryan MIN 7 Target Field PL 403 106.3 24.8 71.6 82 0 -1 1 403 30
04/16/17 Video View Dozier, Brian MIN Shields, James CHW 5 Target Field WS 375 95.9 26.4 96.3 69 2 -1 1 372 0
04/16/17 Video View Garcia, Avisail CHW Pressly, Ryan MIN 10 Target Field PL 376 98.1 31.2 71.7 96 -1 -1 2 375 29
04/17/17 Video View Brantley, Michael CLE Gibson, Kyle MIN 5 Target Field JE 410 105.1 24.0 80.2 76 0 -1 1 410 28
04/21/17 Video View McCann, James DET Santiago, Hector MIN 6 Target Field ND 404 107.8 25.4 112.1 78 -2 -1 2 406 30
04/22/17 Video View Castellanos, Nick DET Mejia, Adalberto MIN 3 Target Field JE 361 99.5 25.9 113.7 66 -1 -1 0 361 9
05/02/17 Video View Dozier, Brian MIN Gray, Sonny OAK 3 Target Field PL 382 100.0 28.7 109.7 84 1 -1 2 381 26
05/02/17 Video View Mauer, Joe MIN Valdez, Cesar OAK 7 Target Field JE 388 100.0 26.7 101.9 80 0 -1 1 389 18
05/02/17 Video View Alonso, Yonder OAK Tonkin, Michael MIN 9 Target Field PL 423 105.6 23.5 86.7 79 0 -1 1 423 25
05/06/17 Video View Grossman, Robbie MIN Porcello, Rick BOS 3 Target Field ND 394 108.2 24.7 62.1 67 -1 -1 1 393 30
05/07/17 Video View Benintendi, Andrew BOS Santana, Ervin MIN 1 Target Field ND 419 110.9 30.0 63.1 108 -11 -1 3 428 30
05/07/17 Video View Vargas, Kennys MIN Barnes, Matt BOS 8 Target Field JE 401 102.8 25.3 101.3 78 0 -1 1 400 26
05/19/17 Video View Bonifacio, Jorge KC Santiago, Hector MIN 3 Target Field JE 369 108.9 21.5 117.7 54 -2 -1 1 371 22
05/21/17 Video View Perez, Salvador KC Hughes, Phil MIN 2 Target Field PL 413 109.7 21.8 102.0 69 -1 -1 1 415 30
05/21/17 Video View Moss, Brandon KC Hughes, Phil MIN 4 Target Field JE/L 375 109.5 21.3 63.8 52 1 -1 1 375 20
05/21/17 Video View Perez, Salvador KC Mejia, Adalberto MIN 1 Target Field JE 384 108.2 22.4 113.6 55 1 -1 0 383 22
05/21/17 Video View Perez, Salvador KC Mejia, Adalberto MIN 4 Target Field PL 400 107.8 22.9 106.6 66 0 -1 0 401 30
04/22/17 Video View Upton, Justin DET Mejia, Adalberto MIN 3 Target Field JE/L 409 111.2 18.5 95.7 53 0 0 0 408 14
04/22/17 Video View Castro, Jason MIN Rodriguez, Francisco DET 9 Target Field JE 391 99.5 34.2 77.2 122 5 0 3 384 16
04/23/17 Video View Avila, Alex DET Gibson, Kyle MIN 2 Target Field JE 400 105.5 23.2 77.1 68 0 0 1 399 28
04/23/17 Video View Rosario, Eddie MIN Fulmer, Michael DET 5 Target Field JE 378 101.7 25.1 108.7 68 0 0 1 378 21
04/23/17 Video View Hicks, John DET Pressly, Ryan MIN 9 Target Field PL 377 103.9 24.6 113.6 65 -1 0 1 377 25
04/23/17 Video View Kepler, Max MIN Sanchez, Anibal DET 8 Target Field JE 398 108.6 22.6 71.5 62 0 0 1 397 29
05/03/17 Video View Vargas, Kennys MIN Graveman, Kendall OAK 3 Target Field JE 418 105.9 22.0 88.3 71 0 0 0 418 22
05/04/17 Video View Santana, Danny MIN Cotton, Jharel OAK 2 Target Field PL 441 107.0 25.2 85.5 84 3 0 1 437 29
05/04/17 Video View Healy, Ryon OAK Breslow, Craig MIN 7 Target Field PL 407 104.6 24.9 103.8 75 3 0 1 403 29
05/04/17 Video View Escobar, Eduardo MIN Montas, Frankie OAK 8 Target Field PL 419 101.5 30.2 81.5 100 10 0 2 407 28
05/05/17 Video View Benintendi, Andrew BOS Hughes, Phil MIN 3 Target Field JE 416 103.2 24.6 88.1 74 1 0 1 414 21
05/05/17 Video View Mauer, Joe MIN Barnes, Matt BOS 9 Target Field JE/L 400 104.5 22.4 97.7 64 -1 0 1 400 14
05/06/17 Video View Young, Chris BOS Tepesch, Nick MIN 2 Target Field PL 414 107.0 23.8 102.7 76 1 0 1 413 30
05/06/17 Video View Young, Chris BOS Rucinski, Drew MIN 5 Target Field PL 392 98.8 31.7 106.4 99 9 0 3 381 23
05/06/17 Video View Leon, Sandy BOS Tonkin, Michael MIN 9 Target Field PL 384 104.4 24.7 67.9 66 0 0 0 383 28
05/07/17 Video View Pedroia, Dustin BOS Santana, Ervin MIN 1 Target Field JE 376 104.4 23.1 109.9 59 0 0 1 375 15
05/07/17 Video View Betts, Mookie BOS Santana, Ervin MIN 5 Target Field JE/L 387 110.2 20.1 105.3 51 0 0 0 388 14
05/07/17 Video View Leon, Sandy BOS Haley, Justin MIN 9 Target Field JE 404 102.2 26.4 79.7 84 -1 0 -2 404 27
05/16/17 Video View Buxton, Byron MIN Freeland, Kyle COL 4 Target Field PL 427 103.0 29.3 92.0 105 4 1 2 421 27
05/16/17 Video View Blackmon, Charlie COL Duffey, Tyler MIN 6 Target Field JE 401 102.2 34.1 82.4 135 -6 1 3 402 23
05/16/17 Video View Parra, Gerardo COL Hughes, Phil MIN 4 Target Field PL 368 102.6 37.5 69.8 144 -11 3 5 371 28


About HitTracker | Contact Us
© 2006-2017 HitTrackerOnline